Big Horn, Wyoming
Current Conditions -  °F | °C
As of 2:53 AM on Friday 31 Oct 2014 (Local Time) from KSHR Reporting Station
Clear Clear  
Wind Chill: 38°   Ceiling: Unl
Heat Index: 43°   Visibility: 10mi
Dew Point: 28°   Wind: 8mph
Humidity: 56%   Direction: 150°SSE
Pressure: 30.15"   Gusts: NA
Location:  44.68°N, 106.99°W
Report Text: KSHR 310853Z AUTO 15007KT 10SM CLR 06/M02 A3015 RMK AO2 SLP204 T00611022 56019 TSNO
Loading
Personal Weather Stations






























Interactive Weather Map
Tropical Storm Tracking
New forecast layout! Learn more

10-Day Weather Forecast

Advertisements
Track Severe Weather on mobile